Flight Track Log - Related Links

Times and Time Zones

All times are in EDT time to prevent confusion due to time zone crossing. See the DAL2150 flight status page for this flight to view local times or setup timezone preferences in your user account.

Time Position Orientation Groundspeed Altitude Reporting Facility
EDT Latitude Longitude Course Direction KTS MPH feet Rate Location/Type
Wed 09:50:05 PM 47.4669 -122.3125 North 163 188 1,800  Level Seattle Center
Wed 09:50:37 PM 47.4864 -122.3122 North 156 180 2,600 2,258 Climbing Seattle Center
Wed 09:51:38 PM 47.5664 -122.3094 43° Northeast 257 296 5,300 2,976 Climbing Seattle Center
Wed 09:52:40 PM 47.6156 -122.2417 114° Southeast 288 331 8,700 1,805 Climbing Seattle Center
Wed 09:53:41 PM 47.5842 -122.1394 147° Southeast 299 344 9,000 393 Climbing Seattle Center
Wed 09:54:42 PM 47.5192 -122.0764 171° South 289 333 9,500 1,033 Climbing Seattle Center
Wed 09:55:43 PM 47.4344 -122.0561 177° South 330 380 11,100 2,115 Climbing Seattle Center
Wed 09:56:44 PM 47.3319 -122.0472 176° South 372 428 13,800 2,803 Climbing Seattle Center
Wed 09:57:45 PM 47.2247 -122.0372 177° South 388 447 16,800 2,705 Climbing Seattle Center
Wed 09:58:46 PM 47.1156 -122.0286 152° Southeast 394 453 19,300 2,656 Climbing Seattle Center
Wed 09:59:47 PM 47.0136 -121.9483 149° Southeast 422 486 22,200 2,829 Climbing Seattle Center
Wed 10:00:49 PM 46.8953 -121.8442 135° Southeast 419 482 25,100 2,195 Climbing Seattle Center
Wed 10:01:50 PM 46.8089 -121.7200 144° Southeast 449 517 26,700 1,574 Climbing Seattle Center
Wed 10:02:51 PM 46.7114 -121.6175 144° Southeast 436 502 28,300 1,770 Climbing Seattle Center
Wed 10:03:52 PM 46.6064 -121.5078 136° Southeast 432 497 30,300 1,820 Climbing Seattle Center
Wed 10:04:53 PM 46.5183 -121.3831 123° Southeast 442 509 32,000 1,561 Climbing Seattle Center
Wed 10:05:55 PM 46.4467 -121.2256 124° Southeast 467 537 33,500 1,220 Climbing Seattle Center
Wed 10:06:56 PM 46.3733 -121.0672 124° Southeast 471 542 34,500 934 Climbing Seattle Center
Wed 10:07:57 PM 46.2992 -120.9092 124° Southeast 476 548 35,400 934 Climbing Seattle Center
Wed 10:08:58 PM 46.2236 -120.7481 124° Southeast 483 556 36,400 1,073 Climbing Seattle Center
Wed 10:10:00 PM 46.1489 -120.5872 124° Southeast 485 558 37,600 1,024 Climbing Seattle Center
Wed 10:11:01 PM 46.0742 -120.4297 124° Southeast 480 552 38,500 689 Climbing Seattle Center
Wed 10:12:02 PM 45.9853 -120.2433 124° Southeast 474 545 39,000 244 Climbing Seattle Center
Wed 10:13:04 PM 45.9106 -120.0867 124° Southeast 476 548 39,000  Level Seattle Center
Wed 10:14:05 PM 45.8361 -119.9308 125° Southeast 476 548 39,000  Level Seattle Center
Wed 10:15:06 PM 45.7631 -119.7797 125° Southeast 470 541 39,000  Level Seattle Center
Wed 10:16:07 PM 45.6900 -119.6303 125° Southeast 464 534 39,000  Level Seattle Center
Wed 10:17:09 PM 45.6164 -119.4814 125° Southeast 461 531 39,000  Level Seattle Center
Wed 10:18:10 PM 45.5439 -119.3319 125° Southeast 459 528 39,000  Level Seattle Center
Wed 10:19:11 PM 45.4689 -119.1808 125° Southeast 462 532 39,000  Level Seattle Center
Wed 10:20:12 PM 45.3939 -119.0297 125° Southeast 465 535 39,000  Level Seattle Center
Wed 10:21:13 PM 45.3181 -118.8781 126° Southeast 469 540 39,000  Level Seattle Center
Wed 10:22:15 PM 45.2269 -118.6981 126° Southeast 470 541 39,000  Level Seattle Center
Wed 10:23:16 PM 45.1522 -118.5503 126° Southeast 466 536 39,000  Level Seattle Center
Wed 10:24:06 PM 45.0919 -118.4314 126° Southeast 464 534 39,000  Level Salt Lake Center
Wed 10:25:18 PM 45.0017 -118.2556 126° Southeast 465 535 39,000  Level Seattle Center
Wed 10:26:19 PM 44.9278 -118.1125 126° Southeast 469 540 39,000  Level Seattle Center
Wed 10:27:12 PM 44.8544 -117.9692 126° Southeast 473 544 39,000  Level Salt Lake Center
Wed 10:28:13 PM 44.7800 -117.8258 127° Southeast 474 545 39,000  Level Salt Lake Center
Wed 10:29:15 PM 44.6931 -117.6611 126° Southeast 472 543 39,000  Level Salt Lake Center
Wed 10:30:17 PM 44.6200 -117.5219 126° Southeast 467 537 39,000  Level Salt Lake Center
Wed 10:31:19 PM 44.5358 -117.3589 126° Southeast 465 535 39,000  Level Salt Lake Center
Wed 10:32:21 PM 44.4628 -117.2203 127° Southeast 464 534 39,000  Level Salt Lake Center
Wed 10:33:22 PM 44.3772 -117.0592 127° Southeast 463 533 39,000  Level Salt Lake Center
Wed 10:34:24 PM 44.3031 -116.9219 127° Southeast 464 534 39,000  Level Salt Lake Center
Wed 10:35:26 PM 44.2183 -116.7636 127° Southeast 461 531 39,000  Level Salt Lake Center
Wed 10:36:28 PM 44.1458 -116.6300 127° Southeast 457 526 39,000  Level Salt Lake Center
Wed 10:37:29 PM 44.0731 -116.4975 127° Southeast 453 521 39,000  Level Salt Lake Center
Wed 10:38:31 PM 43.9892 -116.3417 127° Southeast 454 522 39,000  Level Salt Lake Center
Wed 10:39:33 PM 43.9161 -116.2069 127° Southeast 457 526 39,000  Level Salt Lake Center
Wed 10:40:35 PM 43.8294 -116.0506 127° Southeast 460 529 39,000  Level Salt Lake Center
Wed 10:41:36 PM 43.7553 -115.9161 127° Southeast 460 529 39,000  Level Salt Lake Center
Wed 10:42:38 PM 43.6692 -115.7594 127° Southeast 460 529 39,000  Level Salt Lake Center
Wed 10:43:40 PM 43.5933 -115.6228 128° Southeast 467 537 39,000  Level Salt Lake Center
Wed 10:44:42 PM 43.5053 -115.4650 128° Southeast 466 536 39,000  Level Salt Lake Center
Wed 10:45:43 PM 43.4292 -115.3303 128° Southeast 466 536 39,000  Level Salt Lake Center
Wed 10:46:45 PM 43.3406 -115.1736 128° Southeast 465 535 39,000  Level Salt Lake Center
Wed 10:47:47 PM 43.2644 -115.0392 128° Southeast 465 535 39,000  Level Salt Lake Center
Wed 10:48:48 PM 43.1881 -114.9058 128° Southeast 465 535 39,000  Level Salt Lake Center
Wed 10:49:50 PM 43.0986 -114.7508 128° Southeast 465 535 39,000  Level Salt Lake Center
Wed 10:50:52 PM 43.0228 -114.6186 128° Southeast 463 533 39,000  Level Salt Lake Center
Wed 10:51:53 PM 42.9333 -114.4642 129° Southeast 464 534 39,000  Level Salt Lake Center
Wed 10:52:55 PM 42.8550 -114.3300 129° Southeast 462 532 39,000  Level Salt Lake Center
Wed 10:53:57 PM 42.7739 -114.1917 129° Southeast 463 533 39,000 -195 Level Salt Lake Center
Wed 10:54:58 PM 42.6933 -114.0547 129° Southeast 461 531 38,600 -1,122 Descending Salt Lake Center
Wed 10:56:00 PM 42.6128 -113.9183 133° Southeast 460 529 36,700 -1,984 Descending Salt Lake Center
Wed 10:57:02 PM 42.5233 -113.7869 136° Southeast 470 541 34,500 -2,195 Descending Salt Lake Center
Wed 10:58:03 PM 42.4300 -113.6642 135° Southeast 467 537 32,200 -2,439 Descending Salt Lake Center
Wed 10:59:05 PM 42.3203 -113.5181 136° Southeast 471 542 29,500 -1,548 Descending Salt Lake Center
Wed 11:00:07 PM 42.2244 -113.3936 135° Southeast 472 543 29,000 -244 Descending Salt Lake Center
Wed 11:01:08 PM 42.1306 -113.2678 136° Southeast 473 544 29,000 -98 Level Salt Lake Center
Wed 11:02:10 PM 42.0333 -113.1419 136° Southeast 477 549 28,800 -585 Descending Salt Lake Center
Wed 11:03:11 PM 41.9347 -113.0133 135° Southeast 485 558 27,800 -1,805 Descending Salt Lake Center
Wed 11:04:13 PM 41.8383 -112.8858 136° Southeast 485 558 25,100 -2,661 Descending Salt Lake Center
Wed 11:05:15 PM 41.7444 -112.7644 136° Southeast 472 543 22,300 -2,732 Descending Salt Lake Center
Wed 11:06:16 PM 41.6531 -112.6478 136° Southeast 458 527 19,500 -2,683 Descending Salt Lake Center
Wed 11:07:18 PM 41.5647 -112.5336 141° Southeast 442 509 16,800 -2,098 Descending Salt Lake Center
Wed 11:08:19 PM 41.4756 -112.4361 132° Southeast 406 467 15,200 -1,756 Descending Salt Lake Center
Wed 11:09:21 PM 41.3861 -112.3036 132° Southeast 406 467 13,200 -1,073 Descending Salt Lake Center
Wed 11:10:22 PM 41.3142 -112.1981 132° Southeast 380 437 13,000 -439 Descending Salt Lake Center
Wed 11:11:24 PM 41.2553 -112.1111 151° Southeast 312 359 12,300 -1,073 Descending Salt Lake Center
Wed 11:12:25 PM 41.1831 -112.0575 163° South 300 345 10,800 -1,366 Descending Salt Lake Center
Wed 11:13:27 PM 41.1047 -112.0267 166° South 293 337 9,500 -927 Descending Salt Lake Center
Wed 11:14:28 PM 41.0325 -112.0022 175° South 272 313 8,900 -1,024 Descending Salt Lake Center
Wed 11:15:30 PM 40.9644 -111.9950 176° South 248 285 7,400 -1,317 Descending Salt Lake Center
Wed 11:16:31 PM 40.9044 -111.9892 174° South 215 247 6,200 -1,122 Descending Salt Lake Center
Wed 11:17:33 PM 40.8508 -111.9822 175° South 190 219 5,100 -976 Descending Salt Lake Center
Wed 11:18:34 PM 40.7983 -111.9761 175° South 161 185 4,200 -885 Descending Salt Lake Center

Login

Don't have an account? Register now (free) for customized features, flight alerts, and more!